sensor_id;sensor_type;location;lat;lon;timestamp;P1;durP1;ratioP1;P2;durP2;ratioP2
47872;SDS011;73966;47.438;18.912;2023-11-19T00:01:25;14.43;;;8.38;;
47872;SDS011;73966;47.438;18.912;2023-11-19T00:03:56;12.95;;;9.10;;
47872;SDS011;73966;47.438;18.912;2023-11-19T00:06:25;11.88;;;8.68;;
47872;SDS011;73966;47.438;18.912;2023-11-19T00:08:55;14.90;;;9.38;;
47872;SDS011;73966;47.438;18.912;2023-11-19T00:11:24;10.90;;;8.82;;
47872;SDS011;73966;47.438;18.912;2023-11-19T00:13:53;12.05;;;7.40;;
47872;SDS011;73966;47.438;18.912;2023-11-19T00:16:22;12.77;;;8.63;;
47872;SDS011;73966;47.438;18.912;2023-11-19T00:18:51;11.85;;;8.70;;
47872;SDS011;73966;47.438;18.912;2023-11-19T00:21:22;12.98;;;9.02;;
47872;SDS011;73966;47.438;18.912;2023-11-19T00:23:52;11.85;;;9.13;;
47872;SDS011;73966;47.438;18.912;2023-11-19T00:26:21;11.18;;;8.18;;
47872;SDS011;73966;47.438;18.912;2023-11-19T00:28:52;10.88;;;8.20;;
47872;SDS011;73966;47.438;18.912;2023-11-19T00:31:23;11.30;;;8.30;;
47872;SDS011;73966;47.438;18.912;2023-11-19T00:33:56;10.90;;;7.25;;
47872;SDS011;73966;47.438;18.912;2023-11-19T00:36:26;13.23;;;9.52;;
47872;SDS011;73966;47.438;18.912;2023-11-19T00:38:56;11.93;;;7.87;;
47872;SDS011;73966;47.438;18.912;2023-11-19T00:41:25;11.60;;;8.30;;
47872;SDS011;73966;47.438;18.912;2023-11-19T00:43:54;12.10;;;8.27;;
47872;SDS011;73966;47.438;18.912;2023-11-19T00:46:23;10.93;;;8.43;;
47872;SDS011;73966;47.438;18.912;2023-11-19T00:48:53;11.70;;;8.98;;
47872;SDS011;73966;47.438;18.912;2023-11-19T00:51:22;12.13;;;8.73;;
47872;SDS011;73966;47.438;18.912;2023-11-19T00:53:53;12.85;;;8.77;;
47872;SDS011;73966;47.438;18.912;2023-11-19T00:56:23;14.60;;;9.75;;
47872;SDS011;73966;47.438;18.912;2023-11-19T00:58:52;11.82;;;8.30;;
47872;SDS011;73966;47.438;18.912;2023-11-19T01:01:22;11.30;;;8.20;;
47872;SDS011;73966;47.438;18.912;2023-11-19T01:03:52;12.75;;;9.02;;
47872;SDS011;73966;47.438;18.912;2023-11-19T01:06:27;13.62;;;8.68;;
47872;SDS011;73966;47.438;18.912;2023-11-19T01:08:59;12.18;;;8.57;;
47872;SDS011;73966;47.438;18.912;2023-11-19T01:11:28;13.82;;;8.63;;
47872;SDS011;73966;47.438;18.912;2023-11-19T01:13:56;11.82;;;8.48;;
47872;SDS011;73966;47.438;18.912;2023-11-19T01:16:26;13.40;;;9.52;;
47872;SDS011;73966;47.438;18.912;2023-11-19T01:18:55;10.27;;;7.90;;
47872;SDS011;73966;47.438;18.912;2023-11-19T01:21:43;11.63;;;8.15;;
47872;SDS011;73966;47.438;18.912;2023-11-19T01:24:14;13.40;;;8.50;;
47872;SDS011;73966;47.438;18.912;2023-11-19T01:26:43;12.32;;;8.45;;
47872;SDS011;73966;47.438;18.912;2023-11-19T01:29:13;13.20;;;9.05;;
47872;SDS011;73966;47.438;18.912;2023-11-19T01:31:42;15.68;;;9.48;;
47872;SDS011;73966;47.438;18.912;2023-11-19T01:34:12;10.40;;;8.10;;
47872;SDS011;73966;47.438;18.912;2023-11-19T01:36:41;12.18;;;9.30;;
47872;SDS011;73966;47.438;18.912;2023-11-19T01:39:11;13.13;;;9.07;;
47872;SDS011;73966;47.438;18.912;2023-11-19T01:41:41;12.10;;;8.65;;
47872;SDS011;73966;47.438;18.912;2023-11-19T01:44:10;11.45;;;7.57;;
47872;SDS011;73966;47.438;18.912;2023-11-19T01:46:40;14.02;;;9.25;;
47872;SDS011;73966;47.438;18.912;2023-11-19T01:49:12;12.52;;;9.15;;
47872;SDS011;73966;47.438;18.912;2023-11-19T01:51:44;13.52;;;9.45;;
47872;SDS011;73966;47.438;18.912;2023-11-19T01:54:15;13.35;;;9.10;;
47872;SDS011;73966;47.438;18.912;2023-11-19T01:56:46;12.55;;;8.85;;
47872;SDS011;73966;47.438;18.912;2023-11-19T01:59:16;11.50;;;8.70;;
47872;SDS011;73966;47.438;18.912;2023-11-19T02:01:45;13.27;;;10.18;;
47872;SDS011;73966;47.438;18.912;2023-11-19T02:04:26;16.75;;;10.63;;
47872;SDS011;73966;47.438;18.912;2023-11-19T02:06:56;16.83;;;10.43;;
47872;SDS011;73966;47.438;18.912;2023-11-19T02:09:32;15.70;;;10.52;;
47872;SDS011;73966;47.438;18.912;2023-11-19T02:12:02;16.40;;;11.48;;
47872;SDS011;73966;47.438;18.912;2023-11-19T02:14:32;16.87;;;10.82;;
47872;SDS011;73966;47.438;18.912;2023-11-19T02:17:00;11.80;;;9.13;;
47872;SDS011;73966;47.438;18.912;2023-11-19T02:19:30;12.15;;;8.35;;
47872;SDS011;73966;47.438;18.912;2023-11-19T02:21:59;12.23;;;9.38;;
47872;SDS011;73966;47.438;18.912;2023-11-19T02:24:29;13.93;;;9.52;;
47872;SDS011;73966;47.438;18.912;2023-11-19T02:27:05;16.27;;;10.20;;
47872;SDS011;73966;47.438;18.912;2023-11-19T02:29:44;14.93;;;9.68;;
47872;SDS011;73966;47.438;18.912;2023-11-19T02:32:12;13.70;;;9.63;;
47872;SDS011;73966;47.438;18.912;2023-11-19T02:34:43;12.75;;;9.82;;
47872;SDS011;73966;47.438;18.912;2023-11-19T02:37:12;14.40;;;10.35;;
47872;SDS011;73966;47.438;18.912;2023-11-19T02:39:42;15.93;;;10.35;;
47872;SDS011;73966;47.438;18.912;2023-11-19T02:42:11;14.70;;;9.90;;
47872;SDS011;73966;47.438;18.912;2023-11-19T02:44:44;13.82;;;9.30;;
47872;SDS011;73966;47.438;18.912;2023-11-19T02:47:13;13.30;;;8.80;;
47872;SDS011;73966;47.438;18.912;2023-11-19T02:49:42;12.82;;;8.65;;
47872;SDS011;73966;47.438;18.912;2023-11-19T02:52:12;12.57;;;9.40;;
47872;SDS011;73966;47.438;18.912;2023-11-19T02:54:42;14.43;;;9.98;;
47872;SDS011;73966;47.438;18.912;2023-11-19T02:57:12;11.65;;;8.85;;
47872;SDS011;73966;47.438;18.912;2023-11-19T03:02:15;11.68;;;7.72;;
47872;SDS011;73966;47.438;18.912;2023-11-19T03:04:45;15.02;;;8.48;;
47872;SDS011;73966;47.438;18.912;2023-11-19T03:07:15;13.88;;;8.75;;
47872;SDS011;73966;47.438;18.912;2023-11-19T03:09:45;11.27;;;7.72;;
47872;SDS011;73966;47.438;18.912;2023-11-19T03:12:14;10.80;;;8.27;;
47872;SDS011;73966;47.438;18.912;2023-11-19T03:14:43;11.02;;;8.18;;
47872;SDS011;73966;47.438;18.912;2023-11-19T03:17:16;14.98;;;8.73;;
47872;SDS011;73966;47.438;18.912;2023-11-19T03:19:46;11.20;;;8.40;;
47872;SDS011;73966;47.438;18.912;2023-11-19T03:22:16;11.98;;;8.07;;
47872;SDS011;73966;47.438;18.912;2023-11-19T03:24:44;11.48;;;7.78;;
47872;SDS011;73966;47.438;18.912;2023-11-19T03:27:17;12.68;;;8.50;;
47872;SDS011;73966;47.438;18.912;2023-11-19T03:29:47;10.93;;;6.57;;
47872;SDS011;73966;47.438;18.912;2023-11-19T03:32:17;10.88;;;7.07;;
47872;SDS011;73966;47.438;18.912;2023-11-19T03:34:47;10.95;;;7.75;;
47872;SDS011;73966;47.438;18.912;2023-11-19T03:37:16;12.85;;;8.40;;
47872;SDS011;73966;47.438;18.912;2023-11-19T03:39:46;11.75;;;8.30;;
47872;SDS011;73966;47.438;18.912;2023-11-19T03:42:16;11.75;;;7.93;;
47872;SDS011;73966;47.438;18.912;2023-11-19T03:44:44;11.43;;;7.87;;
47872;SDS011;73966;47.438;18.912;2023-11-19T03:47:13;14.27;;;8.98;;
47872;SDS011;73966;47.438;18.912;2023-11-19T03:49:44;11.52;;;8.82;;
47872;SDS011;73966;47.438;18.912;2023-11-19T03:52:16;8.55;;;6.78;;
47872;SDS011;73966;47.438;18.912;2023-11-19T03:54:49;12.40;;;7.37;;
47872;SDS011;73966;47.438;18.912;2023-11-19T03:57:17;12.65;;;8.48;;
47872;SDS011;73966;47.438;18.912;2023-11-19T03:59:47;11.45;;;7.28;;
47872;SDS011;73966;47.438;18.912;2023-11-19T04:02:17;11.27;;;8.13;;
47872;SDS011;73966;47.438;18.912;2023-11-19T04:04:48;12.07;;;7.65;;
47872;SDS011;73966;47.438;18.912;2023-11-19T04:07:17;13.62;;;7.35;;
47872;SDS011;73966;47.438;18.912;2023-11-19T04:09:46;11.70;;;8.32;;
47872;SDS011;73966;47.438;18.912;2023-11-19T04:12:15;14.57;;;7.85;;
47872;SDS011;73966;47.438;18.912;2023-11-19T04:14:44;12.02;;;8.23;;
47872;SDS011;73966;47.438;18.912;2023-11-19T04:17:13;14.20;;;8.30;;
47872;SDS011;73966;47.438;18.912;2023-11-19T04:19:42;12.57;;;9.70;;
47872;SDS011;73966;47.438;18.912;2023-11-19T04:22:13;11.77;;;8.15;;
47872;SDS011;73966;47.438;18.912;2023-11-19T04:24:43;10.03;;;8.03;;
47872;SDS011;73966;47.438;18.912;2023-11-19T04:27:13;14.95;;;9.88;;
47872;SDS011;73966;47.438;18.912;2023-11-19T04:29:42;12.05;;;9.18;;
47872;SDS011;73966;47.438;18.912;2023-11-19T04:32:14;11.40;;;8.68;;
47872;SDS011;73966;47.438;18.912;2023-11-19T04:34:44;11.85;;;8.27;;
47872;SDS011;73966;47.438;18.912;2023-11-19T04:37:14;12.55;;;8.13;;
47872;SDS011;73966;47.438;18.912;2023-11-19T04:39:44;11.50;;;7.60;;
47872;SDS011;73966;47.438;18.912;2023-11-19T04:42:14;10.18;;;7.57;;
47872;SDS011;73966;47.438;18.912;2023-11-19T04:44:45;11.82;;;8.05;;
47872;SDS011;73966;47.438;18.912;2023-11-19T04:47:14;10.65;;;7.50;;
47872;SDS011;73966;47.438;18.912;2023-11-19T04:49:43;13.93;;;7.07;;
47872;SDS011;73966;47.438;18.912;2023-11-19T04:52:12;11.20;;;7.97;;
47872;SDS011;73966;47.438;18.912;2023-11-19T04:54:47;11.90;;;8.13;;
47872;SDS011;73966;47.438;18.912;2023-11-19T04:57:16;12.95;;;8.50;;
47872;SDS011;73966;47.438;18.912;2023-11-19T04:59:46;17.15;;;8.48;;
47872;SDS011;73966;47.438;18.912;2023-11-19T05:02:15;10.40;;;7.87;;
47872;SDS011;73966;47.438;18.912;2023-11-19T05:04:44;11.45;;;7.87;;
47872;SDS011;73966;47.438;18.912;2023-11-19T05:07:14;14.55;;;8.63;;
47872;SDS011;73966;47.438;18.912;2023-11-19T05:09:43;11.57;;;8.85;;
47872;SDS011;73966;47.438;18.912;2023-11-19T05:12:18;11.07;;;8.25;;
47872;SDS011;73966;47.438;18.912;2023-11-19T05:14:48;14.25;;;9.07;;
47872;SDS011;73966;47.438;18.912;2023-11-19T05:17:18;11.57;;;7.75;;
47872;SDS011;73966;47.438;18.912;2023-11-19T05:19:47;10.02;;;8.30;;
47872;SDS011;73966;47.438;18.912;2023-11-19T05:22:17;14.35;;;7.90;;
47872;SDS011;73966;47.438;18.912;2023-11-19T05:24:48;10.77;;;7.53;;
47872;SDS011;73966;47.438;18.912;2023-11-19T05:27:18;11.77;;;9.75;;
47872;SDS011;73966;47.438;18.912;2023-11-19T05:29:48;15.95;;;8.45;;
47872;SDS011;73966;47.438;18.912;2023-11-19T05:32:17;14.52;;;8.25;;
47872;SDS011;73966;47.438;18.912;2023-11-19T05:34:47;11.85;;;7.60;;
47872;SDS011;73966;47.438;18.912;2023-11-19T05:37:19;11.65;;;8.20;;
47872;SDS011;73966;47.438;18.912;2023-11-19T05:39:49;11.55;;;7.70;;
47872;SDS011;73966;47.438;18.912;2023-11-19T05:42:20;12.95;;;8.63;;
47872;SDS011;73966;47.438;18.912;2023-11-19T05:44:49;17.45;;;8.57;;
47872;SDS011;73966;47.438;18.912;2023-11-19T05:47:19;9.98;;;7.15;;
47872;SDS011;73966;47.438;18.912;2023-11-19T05:49:49;12.05;;;8.23;;
47872;SDS011;73966;47.438;18.912;2023-11-19T05:52:18;12.45;;;8.98;;
47872;SDS011;73966;47.438;18.912;2023-11-19T05:54:50;12.93;;;8.38;;
47872;SDS011;73966;47.438;18.912;2023-11-19T05:57:21;11.68;;;7.87;;
47872;SDS011;73966;47.438;18.912;2023-11-19T05:59:53;14.07;;;10.23;;
47872;SDS011;73966;47.438;18.912;2023-11-19T06:02:22;14.50;;;9.27;;
47872;SDS011;73966;47.438;18.912;2023-11-19T06:04:51;11.63;;;9.23;;
47872;SDS011;73966;47.438;18.912;2023-11-19T06:07:20;12.35;;;9.18;;
47872;SDS011;73966;47.438;18.912;2023-11-19T06:09:49;13.43;;;8.95;;
47872;SDS011;73966;47.438;18.912;2023-11-19T06:12:19;14.48;;;10.65;;
47872;SDS011;73966;47.438;18.912;2023-11-19T06:14:50;13.13;;;10.13;;
47872;SDS011;73966;47.438;18.912;2023-11-19T06:17:19;13.02;;;9.45;;
47872;SDS011;73966;47.438;18.912;2023-11-19T06:19:48;13.73;;;8.57;;
47872;SDS011;73966;47.438;18.912;2023-11-19T06:22:19;17.00;;;13.13;;
47872;SDS011;73966;47.438;18.912;2023-11-19T06:24:48;28.25;;;19.10;;
47872;SDS011;73966;47.438;18.912;2023-11-19T06:27:17;15.60;;;10.23;;
47872;SDS011;73966;47.438;18.912;2023-11-19T06:29:47;15.43;;;9.05;;
47872;SDS011;73966;47.438;18.912;2023-11-19T06:32:17;11.25;;;8.10;;
47872;SDS011;73966;47.438;18.912;2023-11-19T06:34:46;12.90;;;8.73;;
47872;SDS011;73966;47.438;18.912;2023-11-19T06:37:16;11.93;;;8.57;;
47872;SDS011;73966;47.438;18.912;2023-11-19T06:39:45;11.07;;;8.55;;
47872;SDS011;73966;47.438;18.912;2023-11-19T06:42:14;15.38;;;10.07;;
47872;SDS011;73966;47.438;18.912;2023-11-19T06:44:44;14.82;;;8.75;;
47872;SDS011;73966;47.438;18.912;2023-11-19T06:47:12;12.45;;;8.27;;
47872;SDS011;73966;47.438;18.912;2023-11-19T06:49:44;12.82;;;8.48;;
47872;SDS011;73966;47.438;18.912;2023-11-19T06:52:14;12.40;;;9.20;;
47872;SDS011;73966;47.438;18.912;2023-11-19T06:54:44;11.27;;;8.70;;
47872;SDS011;73966;47.438;18.912;2023-11-19T06:57:14;11.93;;;8.98;;
47872;SDS011;73966;47.438;18.912;2023-11-19T06:59:43;12.80;;;8.93;;
47872;SDS011;73966;47.438;18.912;2023-11-19T07:02:12;14.25;;;10.65;;
47872;SDS011;73966;47.438;18.912;2023-11-19T07:04:41;14.75;;;10.13;;
47872;SDS011;73966;47.438;18.912;2023-11-19T07:07:12;12.57;;;10.05;;
47872;SDS011;73966;47.438;18.912;2023-11-19T07:09:42;14.77;;;9.32;;
47872;SDS011;73966;47.438;18.912;2023-11-19T07:12:11;12.55;;;9.27;;
47872;SDS011;73966;47.438;18.912;2023-11-19T07:14:44;13.85;;;10.43;;
47872;SDS011;73966;47.438;18.912;2023-11-19T07:17:14;12.70;;;9.63;;
47872;SDS011;73966;47.438;18.912;2023-11-19T07:19:45;15.60;;;9.88;;
47872;SDS011;73966;47.438;18.912;2023-11-19T07:22:15;13.38;;;9.10;;
47872;SDS011;73966;47.438;18.912;2023-11-19T07:24:44;11.45;;;9.27;;
47872;SDS011;73966;47.438;18.912;2023-11-19T07:27:13;15.60;;;9.48;;
47872;SDS011;73966;47.438;18.912;2023-11-19T07:29:43;16.62;;;10.52;;
47872;SDS011;73966;47.438;18.912;2023-11-19T07:32:13;13.23;;;10.10;;
47872;SDS011;73966;47.438;18.912;2023-11-19T07:34:42;13.62;;;10.00;;
47872;SDS011;73966;47.438;18.912;2023-11-19T07:37:11;13.50;;;10.65;;
47872;SDS011;73966;47.438;18.912;2023-11-19T07:39:42;14.50;;;10.23;;
47872;SDS011;73966;47.438;18.912;2023-11-19T07:42:11;15.43;;;10.15;;
47872;SDS011;73966;47.438;18.912;2023-11-19T07:44:43;17.73;;;13.43;;
47872;SDS011;73966;47.438;18.912;2023-11-19T07:47:13;17.52;;;12.57;;
47872;SDS011;73966;47.438;18.912;2023-11-19T07:49:43;16.83;;;12.80;;
47872;SDS011;73966;47.438;18.912;2023-11-19T07:52:12;26.23;;;15.27;;
47872;SDS011;73966;47.438;18.912;2023-11-19T07:54:46;16.98;;;12.55;;
47872;SDS011;73966;47.438;18.912;2023-11-19T07:57:15;17.77;;;12.18;;
47872;SDS011;73966;47.438;18.912;2023-11-19T07:59:48;22.48;;;12.80;;
47872;SDS011;73966;47.438;18.912;2023-11-19T08:02:17;17.70;;;12.43;;
47872;SDS011;73966;47.438;18.912;2023-11-19T08:04:47;18.30;;;13.07;;
47872;SDS011;73966;47.438;18.912;2023-11-19T08:07:19;19.47;;;14.17;;
47872;SDS011;73966;47.438;18.912;2023-11-19T08:09:49;18.62;;;13.73;;
47872;SDS011;73966;47.438;18.912;2023-11-19T08:12:19;19.45;;;14.13;;
47872;SDS011;73966;47.438;18.912;2023-11-19T08:14:48;19.08;;;13.80;;
47872;SDS011;73966;47.438;18.912;2023-11-19T08:17:17;22.77;;;14.55;;
47872;SDS011;73966;47.438;18.912;2023-11-19T08:19:50;23.30;;;17.20;;
47872;SDS011;73966;47.438;18.912;2023-11-19T08:22:19;24.55;;;16.02;;
47872;SDS011;73966;47.438;18.912;2023-11-19T08:24:51;22.75;;;16.40;;
47872;SDS011;73966;47.438;18.912;2023-11-19T08:27:20;25.88;;;20.50;;
47872;SDS011;73966;47.438;18.912;2023-11-19T08:29:54;25.65;;;17.00;;
47872;SDS011;73966;47.438;18.912;2023-11-19T08:32:24;26.65;;;18.50;;
47872;SDS011;73966;47.438;18.912;2023-11-19T08:34:53;32.65;;;20.40;;
47872;SDS011;73966;47.438;18.912;2023-11-19T08:37:26;30.15;;;19.65;;
47872;SDS011;73966;47.438;18.912;2023-11-19T08:39:57;29.77;;;20.40;;
47872;SDS011;73966;47.438;18.912;2023-11-19T08:42:28;26.75;;;18.15;;
47872;SDS011;73966;47.438;18.912;2023-11-19T08:44:58;27.93;;;18.63;;
47872;SDS011;73966;47.438;18.912;2023-11-19T08:47:26;30.20;;;20.02;;
47872;SDS011;73966;47.438;18.912;2023-11-19T08:49:56;27.85;;;18.27;;
47872;SDS011;73966;47.438;18.912;2023-11-19T08:52:29;25.12;;;18.27;;
47872;SDS011;73966;47.438;18.912;2023-11-19T08:55:03;22.87;;;16.52;;
47872;SDS011;73966;47.438;18.912;2023-11-19T08:57:33;27.00;;;18.87;;
47872;SDS011;73966;47.438;18.912;2023-11-19T09:00:02;28.65;;;21.58;;
47872;SDS011;73966;47.438;18.912;2023-11-19T09:02:35;26.77;;;20.52;;
47872;SDS011;73966;47.438;18.912;2023-11-19T09:05:05;32.42;;;22.60;;
47872;SDS011;73966;47.438;18.912;2023-11-19T09:07:36;25.55;;;20.77;;
47872;SDS011;73966;47.438;18.912;2023-11-19T09:10:07;28.50;;;18.75;;
47872;SDS011;73966;47.438;18.912;2023-11-19T09:12:37;26.17;;;19.77;;
47872;SDS011;73966;47.438;18.912;2023-11-19T09:15:07;25.70;;;20.05;;
47872;SDS011;73966;47.438;18.912;2023-11-19T09:17:38;26.77;;;20.75;;
47872;SDS011;73966;47.438;18.912;2023-11-19T09:20:08;24.65;;;18.27;;
47872;SDS011;73966;47.438;18.912;2023-11-19T09:22:40;25.27;;;18.73;;
47872;SDS011;73966;47.438;18.912;2023-11-19T09:25:10;28.33;;;20.48;;
47872;SDS011;73966;47.438;18.912;2023-11-19T09:27:44;26.70;;;20.52;;
47872;SDS011;73966;47.438;18.912;2023-11-19T09:30:14;40.90;;;21.23;;
47872;SDS011;73966;47.438;18.912;2023-11-19T09:32:43;26.20;;;18.62;;
47872;SDS011;73966;47.438;18.912;2023-11-19T09:35:13;31.23;;;20.55;;
47872;SDS011;73966;47.438;18.912;2023-11-19T09:37:44;26.35;;;20.70;;
47872;SDS011;73966;47.438;18.912;2023-11-19T09:40:14;30.58;;;21.42;;
47872;SDS011;73966;47.438;18.912;2023-11-19T09:42:45;29.92;;;23.25;;
47872;SDS011;73966;47.438;18.912;2023-11-19T09:45:20;27.58;;;20.37;;
47872;SDS011;73966;47.438;18.912;2023-11-19T09:47:50;32.10;;;20.23;;
47872;SDS011;73966;47.438;18.912;2023-11-19T09:50:21;26.93;;;19.47;;
47872;SDS011;73966;47.438;18.912;2023-11-19T09:52:50;29.75;;;20.62;;
47872;SDS011;73966;47.438;18.912;2023-11-19T09:55:21;26.00;;;18.00;;
47872;SDS011;73966;47.438;18.912;2023-11-19T09:57:50;26.55;;;19.40;;
47872;SDS011;73966;47.438;18.912;2023-11-19T10:00:24;28.48;;;18.83;;
47872;SDS011;73966;47.438;18.912;2023-11-19T10:02:56;30.30;;;18.90;;
47872;SDS011;73966;47.438;18.912;2023-11-19T10:05:26;27.52;;;21.42;;
47872;SDS011;73966;47.438;18.912;2023-11-19T10:07:55;28.58;;;22.20;;
47872;SDS011;73966;47.438;18.912;2023-11-19T10:10:25;26.48;;;20.35;;
47872;SDS011;73966;47.438;18.912;2023-11-19T10:12:58;25.42;;;20.12;;
47872;SDS011;73966;47.438;18.912;2023-11-19T10:15:27;25.80;;;19.15;;
47872;SDS011;73966;47.438;18.912;2023-11-19T10:18:01;29.20;;;19.37;;
47872;SDS011;73966;47.438;18.912;2023-11-19T10:20:35;20.65;;;15.90;;
47872;SDS011;73966;47.438;18.912;2023-11-19T10:23:05;19.98;;;14.63;;
47872;SDS011;73966;47.438;18.912;2023-11-19T10:25:35;19.35;;;15.38;;
47872;SDS011;73966;47.438;18.912;2023-11-19T10:28:05;22.40;;;13.70;;
47872;SDS011;73966;47.438;18.912;2023-11-19T10:30:39;17.52;;;12.25;;
47872;SDS011;73966;47.438;18.912;2023-11-19T10:33:10;15.68;;;12.73;;
47872;SDS011;73966;47.438;18.912;2023-11-19T10:35:50;18.45;;;13.00;;
47872;SDS011;73966;47.438;18.912;2023-11-19T10:38:27;17.92;;;13.73;;
47872;SDS011;73966;47.438;18.912;2023-11-19T10:41:00;17.60;;;14.82;;
47872;SDS011;73966;47.438;18.912;2023-11-19T10:43:42;17.23;;;14.40;;
47872;SDS011;73966;47.438;18.912;2023-11-19T10:46:13;23.75;;;16.33;;
47872;SDS011;73966;47.438;18.912;2023-11-19T10:48:52;21.15;;;16.65;;
47872;SDS011;73966;47.438;18.912;2023-11-19T10:51:21;18.08;;;14.68;;
47872;SDS011;73966;47.438;18.912;2023-11-19T10:53:51;21.87;;;14.02;;
47872;SDS011;73966;47.438;18.912;2023-11-19T10:56:29;27.58;;;17.58;;
47872;SDS011;73966;47.438;18.912;2023-11-19T10:58:59;24.67;;;18.75;;
47872;SDS011;73966;47.438;18.912;2023-11-19T11:01:32;25.98;;;18.25;;
47872;SDS011;73966;47.438;18.912;2023-11-19T11:04:10;22.27;;;18.55;;
47872;SDS011;73966;47.438;18.912;2023-11-19T11:06:43;26.33;;;18.83;;
47872;SDS011;73966;47.438;18.912;2023-11-19T11:09:13;25.17;;;18.62;;
47872;SDS011;73966;47.438;18.912;2023-11-19T11:11:46;25.70;;;20.00;;
47872;SDS011;73966;47.438;18.912;2023-11-19T11:16:47;23.95;;;17.92;;
47872;SDS011;73966;47.438;18.912;2023-11-19T11:19:17;27.65;;;17.48;;
47872;SDS011;73966;47.438;18.912;2023-11-19T11:21:50;25.62;;;18.65;;
47872;SDS011;73966;47.438;18.912;2023-11-19T11:24:29;21.50;;;17.58;;
47872;SDS011;73966;47.438;18.912;2023-11-19T11:27:34;25.85;;;19.70;;
47872;SDS011;73966;47.438;18.912;2023-11-19T11:30:29;31.55;;;19.83;;
47872;SDS011;73966;47.438;18.912;2023-11-19T11:33:24;42.78;;;29.70;;
47872;SDS011;73966;47.438;18.912;2023-11-19T11:36:06;30.35;;;22.13;;
47872;SDS011;73966;47.438;18.912;2023-11-19T11:38:42;30.58;;;21.62;;
47872;SDS011;73966;47.438;18.912;2023-11-19T11:41:15;50.25;;;29.27;;
47872;SDS011;73966;47.438;18.912;2023-11-19T11:43:49;33.40;;;22.67;;
47872;SDS011;73966;47.438;18.912;2023-11-19T11:49:28;27.80;;;20.50;;
47872;SDS011;73966;47.438;18.912;2023-11-19T11:52:01;53.58;;;29.25;;
47872;SDS011;73966;47.438;18.912;2023-11-19T11:54:33;27.42;;;20.08;;
47872;SDS011;73966;47.438;18.912;2023-11-19T11:57:09;36.97;;;24.20;;
47872;SDS011;73966;47.438;18.912;2023-11-19T11:59:46;31.15;;;21.60;;
47872;SDS011;73966;47.438;18.912;2023-11-19T12:02:16;31.52;;;22.92;;
47872;SDS011;73966;47.438;18.912;2023-11-19T12:04:49;29.65;;;20.80;;
47872;SDS011;73966;47.438;18.912;2023-11-19T12:07:21;46.20;;;25.65;;
47872;SDS011;73966;47.438;18.912;2023-11-19T12:10:05;61.35;;;33.97;;
47872;SDS011;73966;47.438;18.912;2023-11-19T12:12:36;42.08;;;25.45;;
47872;SDS011;73966;47.438;18.912;2023-11-19T12:15:10;34.25;;;24.02;;
47872;SDS011;73966;47.438;18.912;2023-11-19T12:17:43;36.92;;;24.37;;
47872;SDS011;73966;47.438;18.912;2023-11-19T12:20:18;34.97;;;24.40;;
47872;SDS011;73966;47.438;18.912;2023-11-19T12:22:54;44.33;;;24.42;;
47872;SDS011;73966;47.438;18.912;2023-11-19T12:25:23;34.95;;;21.75;;
47872;SDS011;73966;47.438;18.912;2023-11-19T12:27:53;26.50;;;19.10;;
47872;SDS011;73966;47.438;18.912;2023-11-19T12:30:24;24.70;;;17.37;;
47872;SDS011;73966;47.438;18.912;2023-11-19T12:32:57;27.52;;;20.70;;
47872;SDS011;73966;47.438;18.912;2023-11-19T12:35:27;71.12;;;46.88;;
47872;SDS011;73966;47.438;18.912;2023-11-19T12:37:56;30.05;;;23.65;;
47872;SDS011;73966;47.438;18.912;2023-11-19T12:40:25;22.37;;;17.10;;
47872;SDS011;73966;47.438;18.912;2023-11-19T12:43:01;25.62;;;20.10;;
47872;SDS011;73966;47.438;18.912;2023-11-19T12:45:35;24.95;;;18.37;;
47872;SDS011;73966;47.438;18.912;2023-11-19T12:48:05;24.90;;;18.77;;
47872;SDS011;73966;47.438;18.912;2023-11-19T12:50:51;29.05;;;19.42;;
47872;SDS011;73966;47.438;18.912;2023-11-19T12:53:22;44.13;;;27.90;;
47872;SDS011;73966;47.438;18.912;2023-11-19T12:55:52;83.80;;;38.35;;
47872;SDS011;73966;47.438;18.912;2023-11-19T12:58:28;71.05;;;36.70;;
47872;SDS011;73966;47.438;18.912;2023-11-19T13:01:02;52.75;;;31.58;;
47872;SDS011;73966;47.438;18.912;2023-11-19T13:03:39;28.58;;;20.05;;
47872;SDS011;73966;47.438;18.912;2023-11-19T13:06:09;21.90;;;16.75;;
47872;SDS011;73966;47.438;18.912;2023-11-19T13:08:40;19.98;;;14.43;;
47872;SDS011;73966;47.438;18.912;2023-11-19T13:11:12;21.57;;;16.10;;
47872;SDS011;73966;47.438;18.912;2023-11-19T13:13:54;20.12;;;16.37;;
47872;SDS011;73966;47.438;18.912;2023-11-19T13:16:26;24.60;;;17.40;;
47872;SDS011;73966;47.438;18.912;2023-11-19T13:18:57;21.65;;;16.08;;
47872;SDS011;73966;47.438;18.912;2023-11-19T13:21:28;20.75;;;16.00;;
47872;SDS011;73966;47.438;18.912;2023-11-19T13:23:58;25.75;;;16.85;;
47872;SDS011;73966;47.438;18.912;2023-11-19T13:26:27;22.48;;;16.23;;
47872;SDS011;73966;47.438;18.912;2023-11-19T13:28:56;23.92;;;16.35;;
47872;SDS011;73966;47.438;18.912;2023-11-19T13:31:27;22.87;;;15.73;;
47872;SDS011;73966;47.438;18.912;2023-11-19T13:33:57;23.27;;;15.90;;
47872;SDS011;73966;47.438;18.912;2023-11-19T13:36:26;20.15;;;15.02;;
47872;SDS011;73966;47.438;18.912;2023-11-19T13:38:56;21.00;;;15.57;;
47872;SDS011;73966;47.438;18.912;2023-11-19T13:41:28;22.45;;;16.98;;
47872;SDS011;73966;47.438;18.912;2023-11-19T13:43:57;23.33;;;20.10;;
47872;SDS011;73966;47.438;18.912;2023-11-19T13:46:27;24.45;;;16.15;;
47872;SDS011;73966;47.438;18.912;2023-11-19T13:48:57;26.25;;;17.73;;
47872;SDS011;73966;47.438;18.912;2023-11-19T13:51:26;24.12;;;17.37;;
47872;SDS011;73966;47.438;18.912;2023-11-19T13:53:55;25.17;;;20.42;;
47872;SDS011;73966;47.438;18.912;2023-11-19T13:56:25;27.42;;;20.37;;
47872;SDS011;73966;47.438;18.912;2023-11-19T13:58:54;29.63;;;22.55;;
47872;SDS011;73966;47.438;18.912;2023-11-19T14:01:24;29.23;;;19.08;;
47872;SDS011;73966;47.438;18.912;2023-11-19T14:03:57;27.30;;;19.67;;
47872;SDS011;73966;47.438;18.912;2023-11-19T14:06:26;24.23;;;18.20;;
47872;SDS011;73966;47.438;18.912;2023-11-19T14:08:57;29.75;;;20.62;;
47872;SDS011;73966;47.438;18.912;2023-11-19T14:11:26;26.87;;;21.05;;
47872;SDS011;73966;47.438;18.912;2023-11-19T14:13:58;25.37;;;17.60;;
47872;SDS011;73966;47.438;18.912;2023-11-19T14:16:28;30.95;;;22.80;;
47872;SDS011;73966;47.438;18.912;2023-11-19T14:19:00;33.05;;;25.83;;
47872;SDS011;73966;47.438;18.912;2023-11-19T14:21:34;46.40;;;30.67;;
47872;SDS011;73966;47.438;18.912;2023-11-19T14:24:04;43.83;;;30.42;;
47872;SDS011;73966;47.438;18.912;2023-11-19T14:26:33;48.22;;;32.90;;
47872;SDS011;73966;47.438;18.912;2023-11-19T14:29:03;41.70;;;29.50;;
47872;SDS011;73966;47.438;18.912;2023-11-19T14:31:32;36.90;;;27.45;;
47872;SDS011;73966;47.438;18.912;2023-11-19T14:34:03;37.00;;;29.58;;
47872;SDS011;73966;47.438;18.912;2023-11-19T14:36:33;42.25;;;31.52;;
47872;SDS011;73966;47.438;18.912;2023-11-19T14:39:02;36.55;;;26.52;;
47872;SDS011;73966;47.438;18.912;2023-11-19T14:41:31;34.75;;;26.80;;
47872;SDS011;73966;47.438;18.912;2023-11-19T14:44:00;41.65;;;29.90;;